Обухово

Карта отелей и гостиниц, располагающихся рядом с аэропортом Обухово :

Обухово
Гродно
53° 36' 7.1388" N, 24° 3' 14.2812" E
Код аэродрома ИКАО
UMMG
Код аэродрома RU
УММГ
Координаты
N53.60198° E024.05397°
Превышение над уровнем моря
135
Основная полоса
17/35
Курс магнитный
171,9/351,9
Длина основной ВПП
2560
Ширина основной ВПП
42
Покрытие основной ВПП
Твёрдое (бетон)
Освещение ВПП
Постоянное
Тип: 
Аэродром
Класс аэродрома: 
Международный
Принадлежность: 
ГА
Статус: 
Действующий
Страна: 
Беларусь
Город: 
Гродно
Дополнительная информация: 
Оператор: нет данных. Вызов таможенников-пограничников платный, по предварительной заявке. Цена $40 c одного ВС.
Погода: 

Авиационная погода в Гродно

Регион: 
Погода METAR: 
UMMG 221200Z 36005G08MPS 9999 BKN030 BKN066 M02/M05 Q1016 NOSIG
Время наблюдения
2022-01-22T12:00:00Z
Температура C
-2.0
Точка росы
-5.0
Направление ветра
360
Скорость ветра (узлы)
10
Метео видимость
6.21
Облачность
BKN
BKN
Нижняя граница облачности (футы)
3000
6600
Явления погоды
Условия полета
MVFR
Аэропорт подробнее: 
BKN – значительная (рассеянная, разорванная) облачность;

Найти трансфер

С помощью этой формы Вы можете найти трансфер из аэропорта Обухово в город, аэропорт или вокзал:

Погода в аэропортах:

Авиационная погода в аэропорту Алыкель

Регион: 
Погода METAR: 
UOOO 221800Z 20013MPS 0300 0250S R19/0800N SN BLSN OVC008 M10/M11 Q1017 R19/451033 NOSIG RMK QFE746/0995
Время наблюдения
2022-01-22T18:00:00Z
Температура C
-10.0
Точка росы
-11.0
Направление ветра
200
Скорость ветра (узлы)
25
Метео видимость
0.19
Облачность
OVC
Нижняя граница облачности (футы)
800
Явления погоды
BLSN SN
Условия полета
LIFR
Аэропорт подробнее: 
OVC – сплошная облачность;
BLSN – метель низовая или общая;

Авиационная погода в Берлевоге

Регион: 
Погода METAR: 
ENBV 221150Z 23036G47KT 9999 BLSN SCT040 BKN053 M06/M09 Q1002
Время наблюдения
2022-01-22T11:50:00Z
Температура C
-6.0
Точка росы
-9.0
Направление ветра
230
Скорость ветра (узлы)
36
Метео видимость
6.21
Облачность
SCT
BKN
Нижняя граница облачности (футы)
4000
5300
Явления погоды
BLSN
Условия полета
VFR
SCT – разбросанная отдельная облачность; BKN – значительная (рассеянная, разорванная) облачность;
BLSN – метель низовая или общая;

Авиационная погода в Пскове

Регион: 
Погода METAR: 
ULOO 221800Z 07003MPS 010V110 9000 -SN OVC014 M04/M06 Q1018 R01/490333 NOSIG RMK QFE759
Время наблюдения
2022-01-22T18:00:00Z
Температура C
-4.0
Точка росы
-6.0
Направление ветра
70
Скорость ветра (узлы)
6
Метео видимость
5.59
Облачность
OVC
Нижняя граница облачности (футы)
1400
Явления погоды
-SN
Условия полета
MVFR
OVC – сплошная облачность;
-SN – слабый снег;

Авиационная погода в Чимкенте

Регион: 
Погода METAR: 
UAII 221800Z 36003MPS 1700 R28/P2000 BR OVC002 M01/M01 Q1025 NOSIG RMK QBB080 QFE731/0974
Время наблюдения
2022-01-22T18:00:00Z
Температура C
-1.0
Точка росы
-1.0
Направление ветра
360
Скорость ветра (узлы)
6
Метео видимость
1.06
Облачность
OVC
Нижняя граница облачности (футы)
200
Явления погоды
BR
Условия полета
LIFR
Аэропорт подробнее: 
OVC – сплошная облачность;
BR – дымка (видимость от 1 до 9 км);